»·PEaware :: N80991 KFLG-KTUS

N80991 :: KFLG-KTUS

FLIGHT INFORMATION

Flight Status: Arrived
Operator: Privately registered:
United States
More flights under this callsign
Pilot: Dylan C. (30972)
Aircraft: BEECH AIRCRAFT PREMIER
(PRM1)
More flights by this aircraft type
Origin: KFLG Flagstaff Pulliam
United States
Destination: KTUS Tucson Intl
United States
More flights between these airports :: More routes between these airports
Route: +
File this flight plan on PilotEdge
Remarks:
Altitude:
(Current/Filed)
0ft
Speed:
(Current/Filed)
0kts
Departed: 13-Aug-20 09:11 AM
Arrived: 13-Aug-20 09:59 AM
Distance/Time
Traveled:
185nm/0:48
Distance/Time
To Go:
Arrived

Flight Plot

Page will automatically refresh every two minutes.

Flight plan parsing failed; only flown route is shown


Map Options




Map Legend


Flown Route
Filed Route
Departure Airport
Arrival Airport
Navaid (VOR, NDB)
Fix

Horizontal Profiles

Position Reports

Time Latitude Longitude Heading Altitude Ground
Speed
13-Aug-20 08:57 35.139660 -111.676138 248 7018ft 0kts
13-Aug-20 08:58 35.139660 -111.676138 248 7018ft 0kts
13-Aug-20 08:59 35.139660 -111.676138 248 7018ft 0kts
13-Aug-20 09:01 35.139651 -111.676165 248 7015ft 0kts
13-Aug-20 09:02 35.139651 -111.676165 248 7015ft 0kts
13-Aug-20 09:03 35.139651 -111.676165 248 7015ft 0kts
13-Aug-20 09:04 35.139651 -111.676165 248 7015ft 0kts
13-Aug-20 09:05 35.138185 -111.674931 131 7015ft 17kts
13-Aug-20 09:06 35.139156 -111.672246 39 7015ft 20kts
13-Aug-20 09:07 35.143987 -111.667077 41 7015ft 22kts
13-Aug-20 09:08 35.146147 -111.664326 126 7015ft 0kts
13-Aug-20 09:09 35.145737 -111.663857 156 7015ft 10kts
13-Aug-20 09:10 35.131505 -111.677910 217 7449ft 130kts
13-Aug-20 09:11 35.089359 -111.666304 162 9123ft 196kts
13-Aug-20 09:12 35.029660 -111.648638 167 10759ft 241kts
13-Aug-20 09:13 34.960893 -111.631186 168 11078ft 253kts
13-Aug-20 09:14 34.892719 -111.614082 168 11079ft 252kts
13-Aug-20 09:15 34.824025 -111.596888 168 11079ft 252kts
13-Aug-20 09:16 34.755377 -111.579730 168 11078ft 251kts
13-Aug-20 09:17 34.687152 -111.562707 168 11079ft 251kts
13-Aug-20 09:18 34.618742 -111.545666 168 11079ft 251kts
13-Aug-20 09:19 34.550092 -111.528594 168 11079ft 252kts
13-Aug-20 09:20 34.481501 -111.511565 168 11079ft 252kts
13-Aug-20 09:21 34.412906 -111.494565 168 11079ft 252kts
13-Aug-20 09:22 34.344287 -111.477587 168 11079ft 252kts
13-Aug-20 09:23 34.276976 -111.460959 168 11574ft 257kts
13-Aug-20 09:24 34.206035 -111.443466 168 11571ft 253kts
13-Aug-20 09:25 34.136850 -111.426432 168 11573ft 254kts
13-Aug-20 09:26 34.067612 -111.409415 168 11573ft 254kts
13-Aug-20 09:27 33.998338 -111.392417 168 11573ft 254kts
13-Aug-20 09:28 33.929313 -111.375508 168 11573ft 253kts
13-Aug-20 09:29 33.859982 -111.358559 168 11573ft 254kts
13-Aug-20 09:30 33.790565 -111.341610 168 11573ft 254kts
13-Aug-20 09:31 33.721401 -111.324751 168 11573ft 254kts
13-Aug-20 09:32 33.651927 -111.307845 168 11573ft 254kts
13-Aug-20 09:33 33.582630 -111.291009 168 11573ft 254kts
13-Aug-20 09:34 33.513167 -111.274163 168 11573ft 254kts
13-Aug-20 09:35 33.443783 -111.257362 168 11573ft 254kts
13-Aug-20 09:36 33.374616 -111.240640 168 11573ft 254kts
13-Aug-20 09:37 33.305252 -111.223899 168 11573ft 254kts
13-Aug-20 09:38 33.235748 -111.207151 168 11573ft 255kts
13-Aug-20 09:39 33.166253 -111.190423 168 11573ft 255kts
13-Aug-20 09:40 33.096892 -111.173775 168 11573ft 255kts
13-Aug-20 09:41 33.027515 -111.157138 168 11573ft 255kts
13-Aug-20 09:42 32.958082 -111.141121 170 11573ft 255kts
13-Aug-20 09:43 32.887721 -111.126667 170 11428ft 259kts
13-Aug-20 09:44 32.817040 -111.112137 170 11426ft 256kts
13-Aug-20 09:45 32.747099 -111.097748 170 11426ft 255kts
13-Aug-20 09:46 32.677175 -111.083352 170 11426ft 255kts
13-Aug-20 09:47 32.607431 -111.068984 170 11242ft 254kts
13-Aug-20 09:48 32.542083 -111.055515 170 10066ft 224kts
13-Aug-20 09:49 32.482640 -111.043255 170 8860ft 212kts
13-Aug-20 09:50 32.425273 -111.031415 170 7659ft 208kts
13-Aug-20 09:51 32.368430 -111.021260 172 6634ft 197kts
13-Aug-20 09:53 32.315762 -111.012608 172 5747ft 193kts
13-Aug-20 09:54 32.261976 -111.003763 171 4534ft 194kts
13-Aug-20 09:55 32.216519 -110.996190 181 4063ft 143kts
13-Aug-20 09:56 32.179191 -110.991752 157 3665ft 134kts
13-Aug-20 09:57 32.145447 -110.973805 140 3061ft 127kts
13-Aug-20 09:58 32.122675 -110.947026 136 2591ft 99kts
13-Aug-20 09:59 32.116363 -110.938867 36 2602ft 0kts
13-Aug-20 10:00 32.117797 -110.938846 313 2601ft 17kts
13-Aug-20 10:01 32.122375 -110.943459 357 2585ft 13kts

Navigation Log

Ident Type
Flight plan parsing failed, navigation log unavailable